sensor_id;sensor_type;location;lat;lon;timestamp;P1;durP1;ratioP1;P2;durP2;ratioP2
9324;SDS011;4701;51.566;6.776;2023-04-24T07:03:39;6.17;;;5.07;;
9324;SDS011;4701;51.566;6.776;2023-04-24T07:06:42;7.03;;;5.57;;
9324;SDS011;4701;51.566;6.776;2023-04-24T07:09:44;5.50;;;5.00;;
9324;SDS011;4701;51.566;6.776;2023-04-24T07:12:46;4.83;;;4.37;;
9324;SDS011;4701;51.566;6.776;2023-04-24T07:15:48;4.30;;;3.93;;
9324;SDS011;4701;51.566;6.776;2023-04-24T07:18:52;5.57;;;3.73;;
9324;SDS011;4701;51.566;6.776;2023-04-24T07:21:54;4.20;;;3.53;;
9324;SDS011;4701;51.566;6.776;2023-04-24T07:24:56;4.07;;;3.47;;
9324;SDS011;4701;51.566;6.776;2023-04-24T07:27:57;2.93;;;2.67;;
9324;SDS011;4701;51.566;6.776;2023-04-24T07:30:59;3.43;;;3.13;;
9324;SDS011;4701;51.566;6.776;2023-04-24T07:34:02;2.83;;;2.30;;
9324;SDS011;4701;51.566;6.776;2023-04-24T07:37:04;2.80;;;2.30;;
9324;SDS011;4701;51.566;6.776;2023-04-24T07:40:07;2.33;;;1.67;;
9324;SDS011;4701;51.566;6.776;2023-04-24T07:43:09;1.77;;;1.67;;
9324;SDS011;4701;51.566;6.776;2023-04-24T07:46:11;2.20;;;1.60;;
9324;SDS011;4701;51.566;6.776;2023-04-24T07:49:14;2.00;;;1.30;;
9324;SDS011;4701;51.566;6.776;2023-04-24T07:52:16;1.87;;;1.57;;
9324;SDS011;4701;51.566;6.776;2023-04-24T07:55:17;1.87;;;1.50;;
9324;SDS011;4701;51.566;6.776;2023-04-24T07:58:19;2.67;;;1.73;;
9324;SDS011;4701;51.566;6.776;2023-04-24T08:01:21;1.73;;;1.60;;
9324;SDS011;4701;51.566;6.776;2023-04-24T08:04:24;2.13;;;1.50;;
9324;SDS011;4701;51.566;6.776;2023-04-24T08:07:26;1.53;;;1.40;;
9324;SDS011;4701;51.566;6.776;2023-04-24T08:10:28;1.70;;;1.40;;
9324;SDS011;4701;51.566;6.776;2023-04-24T08:13:30;1.60;;;1.50;;
9324;SDS011;4701;51.566;6.776;2023-04-24T08:16:32;2.97;;;1.33;;
9324;SDS011;4701;51.566;6.776;2023-04-24T08:19:35;1.53;;;1.30;;
9324;SDS011;4701;51.566;6.776;2023-04-24T08:22:37;1.40;;;1.30;;
9324;SDS011;4701;51.566;6.776;2023-04-24T08:25:39;2.27;;;1.50;;
9324;SDS011;4701;51.566;6.776;2023-04-24T08:28:41;4.00;;;1.40;;
9324;SDS011;4701;51.566;6.776;2023-04-24T08:31:43;1.60;;;1.40;;
9324;SDS011;4701;51.566;6.776;2023-04-24T08:34:47;2.33;;;1.60;;
9324;SDS011;4701;51.566;6.776;2023-04-24T08:37:48;2.20;;;2.00;;
9324;SDS011;4701;51.566;6.776;2023-04-24T08:40:51;2.43;;;2.10;;
9324;SDS011;4701;51.566;6.776;2023-04-24T08:43:53;2.17;;;1.97;;
9324;SDS011;4701;51.566;6.776;2023-04-24T08:46:58;3.20;;;1.93;;
9324;SDS011;4701;51.566;6.776;2023-04-24T08:50:02;1.60;;;1.50;;
9324;SDS011;4701;51.566;6.776;2023-04-24T08:53:06;1.63;;;1.50;;
9324;SDS011;4701;51.566;6.776;2023-04-24T08:56:08;2.00;;;1.60;;
9324;SDS011;4701;51.566;6.776;2023-04-24T08:59:10;1.70;;;1.50;;
9324;SDS011;4701;51.566;6.776;2023-04-24T09:02:12;2.43;;;1.60;;
9324;SDS011;4701;51.566;6.776;2023-04-24T09:05:17;2.20;;;1.80;;
9324;SDS011;4701;51.566;6.776;2023-04-24T09:08:20;2.83;;;1.57;;
9324;SDS011;4701;51.566;6.776;2023-04-24T09:11:25;2.83;;;2.20;;
9324;SDS011;4701;51.566;6.776;2023-04-24T09:14:28;1.90;;;1.70;;
9324;SDS011;4701;51.566;6.776;2023-04-24T09:17:32;2.63;;;2.43;;
9324;SDS011;4701;51.566;6.776;2023-04-24T09:20:39;2.87;;;2.67;;
9324;SDS011;4701;51.566;6.776;2023-04-24T09:23:58;4.87;;;3.53;;
9324;SDS011;4701;51.566;6.776;2023-04-24T09:27:02;3.60;;;3.20;;
9324;SDS011;4701;51.566;6.776;2023-04-24T09:30:05;5.37;;;3.90;;
9324;SDS011;4701;51.566;6.776;2023-04-24T09:33:12;5.70;;;3.70;;
9324;SDS011;4701;51.566;6.776;2023-04-24T09:36:17;3.83;;;3.53;;
9324;SDS011;4701;51.566;6.776;2023-04-24T09:39:18;4.90;;;3.67;;
9324;SDS011;4701;51.566;6.776;2023-04-24T09:42:21;5.03;;;3.83;;
9324;SDS011;4701;51.566;6.776;2023-04-24T09:45:27;5.80;;;4.20;;
9324;SDS011;4701;51.566;6.776;2023-04-24T09:48:30;4.20;;;3.43;;
9324;SDS011;4701;51.566;6.776;2023-04-24T09:51:35;7.50;;;4.30;;
9324;SDS011;4701;51.566;6.776;2023-04-24T09:54:39;4.90;;;3.67;;
9324;SDS011;4701;51.566;6.776;2023-04-24T09:57:46;4.60;;;3.70;;
9324;SDS011;4701;51.566;6.776;2023-04-24T10:00:49;4.90;;;4.13;;
9324;SDS011;4701;51.566;6.776;2023-04-24T10:03:51;7.27;;;5.27;;
9324;SDS011;4701;51.566;6.776;2023-04-24T10:06:55;7.73;;;5.70;;
9324;SDS011;4701;51.566;6.776;2023-04-24T10:09:58;7.20;;;5.43;;
9324;SDS011;4701;51.566;6.776;2023-04-24T10:13:00;7.87;;;5.30;;
9324;SDS011;4701;51.566;6.776;2023-04-24T10:16:03;7.87;;;5.77;;
9324;SDS011;4701;51.566;6.776;2023-04-24T10:19:05;7.03;;;5.60;;
9324;SDS011;4701;51.566;6.776;2023-04-24T10:22:09;9.97;;;6.00;;
9324;SDS011;4701;51.566;6.776;2023-04-24T10:25:11;12.20;;;6.50;;
9324;SDS011;4701;51.566;6.776;2023-04-24T10:28:14;8.10;;;5.87;;
9324;SDS011;4701;51.566;6.776;2023-04-24T10:31:16;11.30;;;6.40;;
9324;SDS011;4701;51.566;6.776;2023-04-24T10:34:19;13.20;;;6.53;;
9324;SDS011;4701;51.566;6.776;2023-04-24T10:37:24;12.23;;;6.90;;
9324;SDS011;4701;51.566;6.776;2023-04-24T10:40:29;14.80;;;7.00;;
9324;SDS011;4701;51.566;6.776;2023-04-24T10:43:32;15.23;;;6.73;;
9324;SDS011;4701;51.566;6.776;2023-04-24T10:46:35;9.97;;;6.47;;
9324;SDS011;4701;51.566;6.776;2023-04-24T10:49:37;12.10;;;6.57;;
9324;SDS011;4701;51.566;6.776;2023-04-24T10:52:45;13.40;;;6.20;;
9324;SDS011;4701;51.566;6.776;2023-04-24T10:55:47;14.47;;;5.97;;
9324;SDS011;4701;51.566;6.776;2023-04-24T10:58:51;11.13;;;6.03;;
9324;SDS011;4701;51.566;6.776;2023-04-24T11:01:54;14.20;;;7.90;;
9324;SDS011;4701;51.566;6.776;2023-04-24T11:04:56;12.03;;;6.13;;
9324;SDS011;4701;51.566;6.776;2023-04-24T11:08:12;13.03;;;6.53;;
9324;SDS011;4701;51.566;6.776;2023-04-24T11:11:16;9.60;;;5.33;;
9324;SDS011;4701;51.566;6.776;2023-04-24T11:14:20;9.60;;;5.07;;
9324;SDS011;4701;51.566;6.776;2023-04-24T11:17:29;7.53;;;4.77;;
9324;SDS011;4701;51.566;6.776;2023-04-24T11:20:31;14.17;;;4.87;;
9324;SDS011;4701;51.566;6.776;2023-04-24T11:23:36;10.13;;;4.80;;
9324;SDS011;4701;51.566;6.776;2023-04-24T11:26:38;11.67;;;5.80;;
9324;SDS011;4701;51.566;6.776;2023-04-24T11:29:43;14.83;;;5.47;;
9324;SDS011;4701;51.566;6.776;2023-04-24T11:32:47;10.63;;;3.73;;
9324;SDS011;4701;51.566;6.776;2023-04-24T11:35:51;9.23;;;3.80;;
9324;SDS011;4701;51.566;6.776;2023-04-24T11:38:54;9.97;;;4.17;;
9324;SDS011;4701;51.566;6.776;2023-04-24T11:42:01;10.43;;;4.30;;
9324;SDS011;4701;51.566;6.776;2023-04-24T11:45:07;7.43;;;3.90;;
9324;SDS011;4701;51.566;6.776;2023-04-24T11:48:10;12.73;;;5.33;;
9324;SDS011;4701;51.566;6.776;2023-04-24T11:51:12;7.47;;;4.60;;
9324;SDS011;4701;51.566;6.776;2023-04-24T11:54:15;8.20;;;4.60;;
9324;SDS011;4701;51.566;6.776;2023-04-24T11:57:17;8.97;;;4.37;;
9324;SDS011;4701;51.566;6.776;2023-04-24T12:00:21;4.63;;;3.53;;
9324;SDS011;4701;51.566;6.776;2023-04-24T12:03:24;8.07;;;3.70;;
9324;SDS011;4701;51.566;6.776;2023-04-24T12:06:26;8.63;;;3.57;;
9324;SDS011;4701;51.566;6.776;2023-04-24T12:09:29;6.70;;;4.00;;
9324;SDS011;4701;51.566;6.776;2023-04-24T12:12:41;8.63;;;4.00;;
9324;SDS011;4701;51.566;6.776;2023-04-24T12:15:46;7.70;;;4.10;;
9324;SDS011;4701;51.566;6.776;2023-04-24T12:18:50;7.03;;;4.33;;
9324;SDS011;4701;51.566;6.776;2023-04-24T12:21:59;5.93;;;4.30;;
9324;SDS011;4701;51.566;6.776;2023-04-24T12:25:03;6.07;;;4.17;;
9324;SDS011;4701;51.566;6.776;2023-04-24T12:28:10;6.87;;;4.00;;
9324;SDS011;4701;51.566;6.776;2023-04-24T12:31:13;8.00;;;4.53;;
9324;SDS011;4701;51.566;6.776;2023-04-24T12:34:18;9.27;;;3.97;;
9324;SDS011;4701;51.566;6.776;2023-04-24T12:37:22;6.83;;;2.97;;
9324;SDS011;4701;51.566;6.776;2023-04-24T12:40:26;3.87;;;2.33;;
9324;SDS011;4701;51.566;6.776;2023-04-24T12:43:29;2.53;;;1.80;;
9324;SDS011;4701;51.566;6.776;2023-04-24T12:46:31;7.23;;;2.23;;
9324;SDS011;4701;51.566;6.776;2023-04-24T12:49:33;2.83;;;1.60;;
9324;SDS011;4701;51.566;6.776;2023-04-24T12:52:34;3.93;;;1.47;;
9324;SDS011;4701;51.566;6.776;2023-04-24T12:55:38;3.97;;;1.80;;
9324;SDS011;4701;51.566;6.776;2023-04-24T12:58:40;2.17;;;1.97;;
9324;SDS011;4701;51.566;6.776;2023-04-24T13:01:41;3.27;;;2.00;;
9324;SDS011;4701;51.566;6.776;2023-04-24T13:04:44;4.43;;;2.10;;
9324;SDS011;4701;51.566;6.776;2023-04-24T13:07:47;2.90;;;2.60;;
9324;SDS011;4701;51.566;6.776;2023-04-24T13:10:50;4.80;;;2.53;;
9324;SDS011;4701;51.566;6.776;2023-04-24T13:13:54;3.47;;;2.33;;
9324;SDS011;4701;51.566;6.776;2023-04-24T13:16:56;4.20;;;2.20;;
9324;SDS011;4701;51.566;6.776;2023-04-24T13:19:57;7.30;;;3.03;;
9324;SDS011;4701;51.566;6.776;2023-04-24T13:22:59;4.53;;;2.70;;
9324;SDS011;4701;51.566;6.776;2023-04-24T13:26:02;3.00;;;2.70;;
9324;SDS011;4701;51.566;6.776;2023-04-24T13:29:04;3.30;;;3.00;;
9324;SDS011;4701;51.566;6.776;2023-04-24T13:32:06;4.53;;;2.30;;
9324;SDS011;4701;51.566;6.776;2023-04-24T13:35:08;3.50;;;2.50;;
9324;SDS011;4701;51.566;6.776;2023-04-24T13:38:10;4.67;;;2.20;;
9324;SDS011;4701;51.566;6.776;2023-04-24T13:41:13;5.77;;;2.30;;
9324;SDS011;4701;51.566;6.776;2023-04-24T13:44:16;2.63;;;2.10;;
9324;SDS011;4701;51.566;6.776;2023-04-24T13:47:18;5.33;;;2.20;;
9324;SDS011;4701;51.566;6.776;2023-04-24T13:50:20;5.77;;;2.10;;
9324;SDS011;4701;51.566;6.776;2023-04-24T13:53:22;8.27;;;2.20;;
9324;SDS011;4701;51.566;6.776;2023-04-24T13:56:25;4.30;;;2.07;;
9324;SDS011;4701;51.566;6.776;2023-04-24T13:59:27;3.17;;;1.83;;
9324;SDS011;4701;51.566;6.776;2023-04-24T14:02:29;2.43;;;1.87;;
9324;SDS011;4701;51.566;6.776;2023-04-24T14:05:31;2.87;;;1.93;;
9324;SDS011;4701;51.566;6.776;2023-04-24T14:08:33;7.40;;;2.00;;
9324;SDS011;4701;51.566;6.776;2023-04-24T14:11:36;3.60;;;1.97;;
9324;SDS011;4701;51.566;6.776;2023-04-24T14:14:38;2.57;;;1.97;;
9324;SDS011;4701;51.566;6.776;2023-04-24T14:17:39;5.40;;;2.07;;
9324;SDS011;4701;51.566;6.776;2023-04-24T14:20:42;3.53;;;2.70;;
9324;SDS011;4701;51.566;6.776;2023-04-24T14:23:43;3.63;;;2.97;;
9324;SDS011;4701;51.566;6.776;2023-04-24T14:26:47;4.37;;;2.70;;
9324;SDS011;4701;51.566;6.776;2023-04-24T14:29:48;6.33;;;2.90;;
9324;SDS011;4701;51.566;6.776;2023-04-24T14:32:51;4.73;;;2.90;;
9324;SDS011;4701;51.566;6.776;2023-04-24T14:35:53;5.03;;;3.93;;
9324;SDS011;4701;51.566;6.776;2023-04-24T14:38:55;4.63;;;3.13;;
9324;SDS011;4701;51.566;6.776;2023-04-24T14:41:58;4.30;;;2.77;;
9324;SDS011;4701;51.566;6.776;2023-04-24T14:45:01;5.10;;;2.30;;
9324;SDS011;4701;51.566;6.776;2023-04-24T14:48:03;4.23;;;1.90;;
9324;SDS011;4701;51.566;6.776;2023-04-24T14:51:05;3.73;;;1.70;;
9324;SDS011;4701;51.566;6.776;2023-04-24T14:54:07;1.57;;;1.40;;
9324;SDS011;4701;51.566;6.776;2023-04-24T14:57:10;2.40;;;1.50;;
9324;SDS011;4701;51.566;6.776;2023-04-24T15:00:12;2.87;;;1.50;;
9324;SDS011;4701;51.566;6.776;2023-04-24T15:03:18;2.90;;;1.00;;
9324;SDS011;4701;51.566;6.776;2023-04-24T15:06:20;3.97;;;1.37;;
9324;SDS011;4701;51.566;6.776;2023-04-24T15:09:22;3.37;;;1.53;;
9324;SDS011;4701;51.566;6.776;2023-04-24T15:12:30;1.80;;;1.20;;
9324;SDS011;4701;51.566;6.776;2023-04-24T15:15:32;1.50;;;1.10;;
9324;SDS011;4701;51.566;6.776;2023-04-24T15:18:34;2.57;;;1.40;;
9324;SDS011;4701;51.566;6.776;2023-04-24T15:21:36;2.67;;;1.10;;
9324;SDS011;4701;51.566;6.776;2023-04-24T15:24:41;2.57;;;1.30;;
9324;SDS011;4701;51.566;6.776;2023-04-24T15:27:47;2.80;;;1.13;;
9324;SDS011;4701;51.566;6.776;2023-04-24T15:30:49;3.17;;;1.13;;
9324;SDS011;4701;51.566;6.776;2023-04-24T15:33:51;3.53;;;1.50;;
9324;SDS011;4701;51.566;6.776;2023-04-24T15:36:53;2.93;;;1.40;;
9324;SDS011;4701;51.566;6.776;2023-04-24T15:39:55;1.40;;;1.30;;
9324;SDS011;4701;51.566;6.776;2023-04-24T15:42:58;3.23;;;1.40;;
9324;SDS011;4701;51.566;6.776;2023-04-24T15:46:00;2.73;;;1.23;;
9324;SDS011;4701;51.566;6.776;2023-04-24T15:49:02;2.33;;;1.40;;
9324;SDS011;4701;51.566;6.776;2023-04-24T15:52:04;1.30;;;1.20;;
9324;SDS011;4701;51.566;6.776;2023-04-24T15:55:06;2.87;;;1.57;;
9324;SDS011;4701;51.566;6.776;2023-04-24T15:58:09;2.00;;;1.53;;
9324;SDS011;4701;51.566;6.776;2023-04-24T16:01:11;2.87;;;1.67;;
9324;SDS011;4701;51.566;6.776;2023-04-24T16:04:13;2.73;;;1.63;;
9324;SDS011;4701;51.566;6.776;2023-04-24T16:07:15;2.87;;;1.70;;
9324;SDS011;4701;51.566;6.776;2023-04-24T16:10:18;4.70;;;2.23;;
9324;SDS011;4701;51.566;6.776;2023-04-24T16:13:21;6.20;;;2.73;;
9324;SDS011;4701;51.566;6.776;2023-04-24T16:16:23;4.33;;;2.70;;
9324;SDS011;4701;51.566;6.776;2023-04-24T16:19:25;2.60;;;2.03;;
9324;SDS011;4701;51.566;6.776;2023-04-24T16:22:27;4.30;;;2.27;;
9324;SDS011;4701;51.566;6.776;2023-04-24T16:25:29;5.77;;;2.30;;
9324;SDS011;4701;51.566;6.776;2023-04-24T16:28:32;4.10;;;2.50;;
9324;SDS011;4701;51.566;6.776;2023-04-24T16:31:33;4.70;;;2.43;;
9324;SDS011;4701;51.566;6.776;2023-04-24T16:34:35;3.90;;;2.97;;
9324;SDS011;4701;51.566;6.776;2023-04-24T16:37:37;8.60;;;2.97;;
9324;SDS011;4701;51.566;6.776;2023-04-24T16:40:39;4.10;;;2.67;;
9324;SDS011;4701;51.566;6.776;2023-04-24T16:43:43;4.83;;;2.97;;
9324;SDS011;4701;51.566;6.776;2023-04-24T16:46:45;5.10;;;2.60;;
9324;SDS011;4701;51.566;6.776;2023-04-24T16:49:47;2.33;;;1.80;;
9324;SDS011;4701;51.566;6.776;2023-04-24T16:52:49;2.77;;;1.70;;
9324;SDS011;4701;51.566;6.776;2023-04-24T16:55:51;2.20;;;1.90;;
9324;SDS011;4701;51.566;6.776;2023-04-24T16:58:54;3.53;;;1.80;;
9324;SDS011;4701;51.566;6.776;2023-04-24T17:01:56;3.27;;;1.57;;
9324;SDS011;4701;51.566;6.776;2023-04-24T17:04:58;4.93;;;2.10;;
9324;SDS011;4701;51.566;6.776;2023-04-24T17:08:00;5.10;;;2.20;;
9324;SDS011;4701;51.566;6.776;2023-04-24T17:11:02;4.67;;;2.50;;
9324;SDS011;4701;51.566;6.776;2023-04-24T17:14:05;4.63;;;2.03;;
9324;SDS011;4701;51.566;6.776;2023-04-24T17:17:07;4.87;;;2.10;;
9324;SDS011;4701;51.566;6.776;2023-04-24T17:20:09;8.53;;;2.87;;
9324;SDS011;4701;51.566;6.776;2023-04-24T17:23:12;5.90;;;2.87;;
9324;SDS011;4701;51.566;6.776;2023-04-24T17:26:14;4.77;;;2.27;;
9324;SDS011;4701;51.566;6.776;2023-04-24T17:29:17;3.47;;;2.50;;
9324;SDS011;4701;51.566;6.776;2023-04-24T17:32:19;8.50;;;3.00;;
9324;SDS011;4701;51.566;6.776;2023-04-24T17:35:21;8.50;;;2.77;;
9324;SDS011;4701;51.566;6.776;2023-04-24T17:38:23;8.33;;;3.20;;
9324;SDS011;4701;51.566;6.776;2023-04-24T17:41:25;7.50;;;2.70;;
9324;SDS011;4701;51.566;6.776;2023-04-24T17:44:28;5.87;;;3.00;;
9324;SDS011;4701;51.566;6.776;2023-04-24T17:47:30;7.53;;;3.23;;
9324;SDS011;4701;51.566;6.776;2023-04-24T17:50:32;6.90;;;2.83;;
9324;SDS011;4701;51.566;6.776;2023-04-24T17:53:34;11.20;;;3.83;;
9324;SDS011;4701;51.566;6.776;2023-04-24T17:56:35;7.23;;;3.40;;
9324;SDS011;4701;51.566;6.776;2023-04-24T17:59:39;9.53;;;3.40;;
9324;SDS011;4701;51.566;6.776;2023-04-24T18:02:40;5.83;;;3.40;;
9324;SDS011;4701;51.566;6.776;2023-04-24T18:05:42;7.30;;;3.30;;
9324;SDS011;4701;51.566;6.776;2023-04-24T18:08:44;8.23;;;3.37;;
9324;SDS011;4701;51.566;6.776;2023-04-24T18:11:46;8.30;;;3.70;;
9324;SDS011;4701;51.566;6.776;2023-04-24T18:14:50;8.00;;;3.40;;
9324;SDS011;4701;51.566;6.776;2023-04-24T18:17:51;7.90;;;3.10;;
9324;SDS011;4701;51.566;6.776;2023-04-24T18:20:53;7.20;;;3.13;;
9324;SDS011;4701;51.566;6.776;2023-04-24T18:23:55;6.30;;;3.33;;
9324;SDS011;4701;51.566;6.776;2023-04-24T18:26:59;8.10;;;3.73;;
9324;SDS011;4701;51.566;6.776;2023-04-24T18:30:03;11.83;;;3.67;;
9324;SDS011;4701;51.566;6.776;2023-04-24T18:33:05;7.40;;;3.90;;
9324;SDS011;4701;51.566;6.776;2023-04-24T18:36:07;7.50;;;3.50;;
9324;SDS011;4701;51.566;6.776;2023-04-24T18:39:09;7.00;;;3.50;;
9324;SDS011;4701;51.566;6.776;2023-04-24T18:42:11;10.07;;;3.87;;
9324;SDS011;4701;51.566;6.776;2023-04-24T18:45:14;7.27;;;3.23;;
9324;SDS011;4701;51.566;6.776;2023-04-24T18:48:16;6.00;;;3.33;;
9324;SDS011;4701;51.566;6.776;2023-04-24T18:51:18;8.67;;;4.07;;
9324;SDS011;4701;51.566;6.776;2023-04-24T18:54:19;8.23;;;3.90;;
9324;SDS011;4701;51.566;6.776;2023-04-24T18:57:21;6.83;;;3.87;;
9324;SDS011;4701;51.566;6.776;2023-04-24T19:00:25;10.37;;;4.33;;
9324;SDS011;4701;51.566;6.776;2023-04-24T19:03:26;9.70;;;4.50;;
9324;SDS011;4701;51.566;6.776;2023-04-24T19:06:29;11.00;;;4.33;;
9324;SDS011;4701;51.566;6.776;2023-04-24T19:09:31;10.53;;;4.33;;
9324;SDS011;4701;51.566;6.776;2023-04-24T19:12:32;11.20;;;4.80;;
9324;SDS011;4701;51.566;6.776;2023-04-24T19:15:36;10.17;;;4.63;;
9324;SDS011;4701;51.566;6.776;2023-04-24T19:18:40;8.57;;;3.37;;
9324;SDS011;4701;51.566;6.776;2023-04-24T19:21:43;8.97;;;3.47;;
9324;SDS011;4701;51.566;6.776;2023-04-24T19:24:46;8.17;;;3.20;;
9324;SDS011;4701;51.566;6.776;2023-04-24T19:27:48;7.43;;;3.60;;
9324;SDS011;4701;51.566;6.776;2023-04-24T19:30:51;10.50;;;3.53;;
9324;SDS011;4701;51.566;6.776;2023-04-24T19:33:59;10.47;;;4.17;;
9324;SDS011;4701;51.566;6.776;2023-04-24T19:37:46;8.43;;;4.00;;
9324;SDS011;4701;51.566;6.776;2023-04-24T19:40:53;11.10;;;4.63;;
9324;SDS011;4701;51.566;6.776;2023-04-24T19:43:55;8.13;;;4.17;;
9324;SDS011;4701;51.566;6.776;2023-04-24T19:50:15;8.80;;;4.90;;
9324;SDS011;4701;51.566;6.776;2023-04-24T19:53:17;9.20;;;4.50;;
9324;SDS011;4701;51.566;6.776;2023-04-24T19:56:19;13.17;;;4.67;;
9324;SDS011;4701;51.566;6.776;2023-04-24T19:59:21;10.23;;;5.23;;
9324;SDS011;4701;51.566;6.776;2023-04-24T20:02:24;13.50;;;5.80;;
9324;SDS011;4701;51.566;6.776;2023-04-24T20:05:29;15.63;;;4.77;;
9324;SDS011;4701;51.566;6.776;2023-04-24T20:08:31;9.00;;;4.67;;
9324;SDS011;4701;51.566;6.776;2023-04-24T20:11:33;10.83;;;4.03;;
9324;SDS011;4701;51.566;6.776;2023-04-24T20:14:34;11.17;;;4.80;;
9324;SDS011;4701;51.566;6.776;2023-04-24T20:17:38;11.80;;;5.40;;
9324;SDS011;4701;51.566;6.776;2023-04-24T20:20:40;10.63;;;4.73;;
9324;SDS011;4701;51.566;6.776;2023-04-24T20:23:42;10.67;;;5.37;;
9324;SDS011;4701;51.566;6.776;2023-04-24T20:26:44;7.80;;;4.77;;
9324;SDS011;4701;51.566;6.776;2023-04-24T20:29:45;11.80;;;5.70;;
9324;SDS011;4701;51.566;6.776;2023-04-24T20:32:49;18.30;;;5.57;;
9324;SDS011;4701;51.566;6.776;2023-04-24T20:35:50;10.90;;;5.30;;
9324;SDS011;4701;51.566;6.776;2023-04-24T20:38:52;11.07;;;4.77;;
9324;SDS011;4701;51.566;6.776;2023-04-24T20:41:56;14.33;;;4.67;;
9324;SDS011;4701;51.566;6.776;2023-04-24T20:44:58;15.13;;;5.47;;
9324;SDS011;4701;51.566;6.776;2023-04-24T20:48:02;6.63;;;4.93;;
9324;SDS011;4701;51.566;6.776;2023-04-24T20:51:05;10.40;;;4.50;;
9324;SDS011;4701;51.566;6.776;2023-04-24T20:54:07;9.57;;;4.67;;
9324;SDS011;4701;51.566;6.776;2023-04-24T20:57:09;14.53;;;5.03;;
9324;SDS011;4701;51.566;6.776;2023-04-24T21:00:11;11.23;;;4.87;;
